Thursday, September 20, 2018, 6:42 PM EDT
Back to Local

KIJD, Willimantic Windham Airport

Location: North Windham, CT, United States Lat: 41.75
Local Time: 6:42 PM EDT (22:42 GMT) Lon: -72.183
Time Zone: US/Eastern Elev: 246 ft

Show me the last for .
Show Decoded

2018-09-20 17:52 METAR KIJD 202152Z AUTO 00000KT 10SM OVC049 19/14 A3023 RMK AO2 SLP237 T01940139
                 =
2018-09-20 16:52 METAR KIJD 202052Z AUTO 09005KT 10SM OVC049 21/13 A3022 RMK AO2 SLP233 T02060128
                 56003 =
2018-09-20 15:52 METAR KIJD 201952Z AUTO 05005KT 10SM OVC049 21/12 A3023 RMK AO2 SLP235 T02110122
                 =
2018-09-20 14:52 METAR KIJD 201852Z AUTO 05007KT 10SM OVC046 21/13 A3022 RMK AO2 SLP233 T02110128
                 =
2018-09-20 13:52 METAR KIJD 201752Z AUTO 06005KT 10SM BKN042 21/13 A3023 RMK AO2 SLP236 T02110128
                 10217 20156 58009 =
2018-09-20 12:52 METAR KIJD 201652Z AUTO VRB04KT 10SM FEW034 21/13 A3024 RMK AO2 SLP240 T02060133
                 =
2018-09-20 11:52 METAR KIJD 201552Z AUTO 03009KT 10SM FEW029 OVC050 20/14 A3026 RMK AO2 SLP246
                 T02000139 =
2018-09-20 11:09 METAR KIJD 201509Z AUTO 03009KT 10SM SCT024 OVC050 19/13 A3026 RMK AO2 T01890133
                 =
2018-09-20 10:59 METAR KIJD 201459Z AUTO 03007KT 10SM BKN024 OVC050 19/13 A3026 RMK AO2 T01890133
                 =
2018-09-20 10:52 METAR KIJD 201452Z AUTO 36010KT 10SM SCT024 OVC050 19/13 A3026 RMK AO2 SLP245
                 T01940133 51012 =
2018-09-20 10:50 METAR KIJD 201450Z AUTO 36009KT 10SM SCT024 OVC050 19/13 A3026 RMK AO2 =
2018-09-20 10:39 METAR KIJD 201439Z AUTO 36009KT 10SM BKN024 OVC050 18/13 A3026 RMK AO2 T01830133
                 =
2018-09-20 10:23 METAR KIJD 201423Z AUTO 04005KT 10SM SCT024 OVC050 18/13 A3026 RMK AO2 T01830133
                 =
2018-09-20 09:52 METAR KIJD 201352Z AUTO 03008KT 10SM BKN023 18/13 A3024 RMK AO2 SLP238 T01830133
                 =
2018-09-20 09:45 METAR KIJD 201345Z AUTO 03006KT 10SM BKN021 17/13 A3024 RMK AO2 T01720133 =
2018-09-20 09:23 METAR KIJD 201323Z AUTO 04006KT 10SM SCT019 17/13 A3024 RMK AO2 T01670133 =
2018-09-20 08:52 METAR KIJD 201252Z AUTO 06009KT 10SM BKN020 17/13 A3022 RMK AO2 SLP233 T01670128
                 =
2018-09-20 08:36 METAR KIJD 201236Z AUTO 05005KT 10SM BKN021 16/13 A3022 RMK AO2 T01610133 =
2018-09-20 07:52 METAR KIJD 201152Z AUTO 04005KT 10SM FEW050 16/13 A3020 RMK AO2 SLP226 T01560133
                 10156 20144 53021 =
2018-09-20 07:05 METAR KIJD 201105Z AUTO 01005KT 10SM SCT022 BKN050 14/13 A3019 RMK AO2 T01440133
                 =
2018-09-20 06:52 METAR KIJD 201052Z AUTO 02003KT 10SM BKN022 BKN050 14/13 A3018 RMK AO2 SLP217
                 T01440133 =
2018-09-20 05:52 METAR KIJD 200952Z AUTO 36006KT 10SM OVC022 14/13 A3016 RMK AO2 SLP210 T01440133
                 =
2018-09-20 05:25 METAR KIJD 200925Z AUTO 36005KT 10SM BKN022 14/13 A3015 RMK AO2 T01440133 =
2018-09-20 04:52 METAR KIJD 200852Z AUTO 04004KT 10SM OVC045 15/14 A3014 RMK AO2 SLP205 T01500139
                 53007 =
2018-09-20 03:52 METAR KIJD 200752Z AUTO 34004KT 10SM OVC044 15/14 A3013 RMK AO2 SLP202 T01500139
                 =
2018-09-20 02:52 METAR KIJD 200652Z AUTO 01004KT 10SM OVC040 15/14 A3012 RMK AO2 SLP200 T01500139
                 =
2018-09-20 01:52 METAR KIJD 200552Z AUTO 36003KT 10SM BKN043 15/14 A3012 RMK AO2 SLP198 T01500144
                 10178 20139 51009 =
2018-09-20 00:52 METAR KIJD 200452Z AUTO 03004KT 10SM FEW017 15/14 A3012 RMK AO2 SLP197 T01500139
                 402170150 =
2018-09-20 00:19 METAR KIJD 200419Z AUTO 01003KT 10SM SCT018 BKN031 OVC055 16/14 A3012 RMK AO2
                 T01560139 =
2018-09-19 23:52 METAR KIJD 200352Z AUTO 36004KT 10SM BKN019 OVC026 16/14 A3011 RMK AO2 SLP194
                 T01610139 =
2018-09-19 22:52 METAR KIJD 200252Z AUTO 08006KT 10SM FEW018 BKN025 OVC030 16/14 A3009 RMK AO2
                 SLP189 T01610139 51020 =
2018-09-19 22:03 METAR KIJD 200203Z AUTO 09004KT 10SM BKN018 BKN026 OVC055 17/14 A3008 RMK AO2
                 T01670144 =
2018-09-19 21:52 METAR KIJD 200152Z AUTO 08005KT 10SM SCT018 SCT026 OVC055 17/15 A3008 RMK AO2
                 SLP185 T01670150 =
2018-09-19 20:52 METAR KIJD 200052Z AUTO 04006KT 10SM OVC015 17/15 A3006 RMK AO2 SLP180 T01720150
                 =
2018-09-19 19:52 METAR KIJD 192352Z AUTO 04007KT 10SM OVC015 17/16 A3003 RMK AO2 SLP169 T01720156
                 10217 20172 51013 =
2018-09-19 19:49 METAR KIJD 192349Z AUTO 05007KT 10SM OVC015 18/16 A3003 RMK AO2 =
2018-09-19 19:28 METAR KIJD 192328Z AUTO 07009KT 10SM OVC014 18/16 A3002 RMK AO2 T01780161 =
2018-09-19 18:52 METAR KIJD 192252Z AUTO 05004KT 10SM BKN018 18/16 A3001 RMK AO2 SLP162 T01780161
                 =

Support USWX by starting your Amazon purchase here.